Aviation Digital Data Service (ADDS)

Output produced by METARs form (2324 UTC 23 May 2022)
found at http://www.aviationweather.gov/metar/data/
 
FYWE 231800Z VRB03KT CAVOK 12/M00 Q1025
TAF FYWE 232300Z 2400/2409 00000KT CAVOK
       
FYGF 232300Z AUTO 29003KT //// // ////// 08/01 Q1024
TAF FYGF 232300Z 2400/2409 13003KT CAVOK
       
FYWH 231800Z 00000KT CAVOK 11/M01 Q1026 NOSIG
TAF FYWH 232200Z 2400/2500 27007KT CAVOK
       
FYKM 232300Z AUTO 00000KT //// // ////// 05/01 Q1019
TAF FYKM 232300Z 2400/2409 18003KT CAVOK
       
FYKT 231800Z /////KT CAVOK ///// Q////
TAF FYKT 232200Z 2400/2500 01006KT CAVOK
       
FYLZ 232300Z AUTO 11007KT //// // ////// 18/04 Q1015
TAF FYLZ 232300Z 2400/2409 14003KT CAVOK
       
FYOA 232300Z AUTO 15003KT //// // ////// 08/M05 Q1018
TAF FYOA 232300Z 2400/2409 10006KT CAVOK
       
FYRU 232300Z AUTO 00000KT //// // ////// 08/01 Q1023
TAF FYRU 232300Z 2400/2409 13003KT CAVOK
       
FYWB 232300Z AUTO 10011KT //// // ////// 18/M00 Q1015
TAF FYWB 232200Z 2400/2500 12004KT CAVOK